createdAt,value
2022-11-16T00:01:51.685Z,99636.44
2022-11-16T00:04:23.720Z,99633.78
2022-11-16T00:06:55.677Z,99641.69
2022-11-16T00:09:29.759Z,99648.75
2022-11-16T00:12:06.488Z,99654.03
2022-11-16T00:14:38.683Z,99645.25
2022-11-16T00:17:10.661Z,99656.66
2022-11-16T00:19:42.584Z,99628.47
2022-11-16T00:22:14.454Z,99639.06
2022-11-16T00:24:46.780Z,99632.84
2022-11-16T00:27:18.678Z,99645.19
2022-11-16T00:29:50.588Z,99651.38
2022-11-16T00:32:23.327Z,99626.69
2022-11-16T00:34:55.222Z,99658.38
2022-11-16T00:37:27.160Z,99653.13
2022-11-16T00:39:59.025Z,99654.03
2022-11-16T00:42:30.952Z,99641.72
2022-11-16T00:45:06.297Z,99630.25
2022-11-16T00:47:38.253Z,99625.91
2022-11-16T00:50:10.345Z,99622.38
2022-11-16T00:52:42.291Z,99607.44
2022-11-16T00:55:14.373Z,99615.34
2022-11-16T00:57:46.285Z,99634.69
2022-11-16T01:00:18.954Z,99643.50
2022-11-16T01:02:52.628Z,99646.97
2022-11-16T01:05:24.719Z,99622.38
2022-11-16T01:07:57.257Z,99610.88
2022-11-16T01:10:29.786Z,99630.31
2022-11-16T01:13:01.721Z,99626.75
2022-11-16T01:15:34.018Z,99618.00
2022-11-16T01:18:06.027Z,99611.84
2022-11-16T01:20:41.367Z,99601.28
2022-11-16T01:23:13.271Z,99615.34
2022-11-16T01:25:45.186Z,99615.34
2022-11-16T01:28:17.386Z,99614.47
2022-11-16T01:30:49.728Z,99604.78
2022-11-16T01:33:21.818Z,99608.34
2022-11-16T01:35:53.948Z,99598.66
2022-11-16T01:38:29.514Z,99593.41
2022-11-16T01:41:01.990Z,99596.03
2022-11-16T01:44:14.973Z,99594.25
2022-11-16T01:46:46.920Z,99597.78
2022-11-16T01:49:27.050Z,99600.44
2022-11-16T01:52:08.394Z,99593.41
2022-11-16T01:54:46.349Z,99595.16
2022-11-16T01:57:38.263Z,99600.44
2022-11-16T02:00:14.409Z,99602.19
2022-11-16T02:02:46.495Z,99599.59
2022-11-16T02:05:26.110Z,99601.31
2022-11-16T02:08:38.832Z,99586.38
2022-11-16T02:11:41.970Z,99587.25
2022-11-16T02:14:49.720Z,99581.97
2022-11-16T02:17:48.906Z,99582.81
2022-11-16T02:20:52.276Z,99587.25
2022-11-16T02:23:49.095Z,99583.72
2022-11-16T02:27:04.646Z,99577.59
2022-11-16T02:29:52.797Z,99575.81
2022-11-16T02:32:38.108Z,99562.66
2022-11-16T02:35:18.780Z,99562.66
2022-11-16T02:38:02.317Z,99568.81
2022-11-16T02:40:40.034Z,99565.25
2022-11-16T02:43:21.165Z,99574.06
2022-11-16T02:45:58.790Z,99574.97
2022-11-16T02:48:43.811Z,99582.88
2022-11-16T02:51:17.698Z,99596.91
2022-11-16T02:54:12.814Z,99609.19
2022-11-16T02:57:03.012Z,99610.06
2022-11-16T02:59:50.487Z,99603.88
2022-11-16T03:02:51.709Z,99606.50
2022-11-16T03:05:54.334Z,99601.28
2022-11-16T03:08:40.111Z,99596.84
2022-11-16T03:11:32.906Z,99595.94
2022-11-16T03:14:13.212Z,99589.81
2022-11-16T03:16:51.315Z,99595.06
2022-11-16T03:19:43.998Z,99601.22
2022-11-16T03:22:39.898Z,99614.41
2022-11-16T03:25:17.976Z,99597.69
2022-11-16T03:28:01.371Z,99608.25
2022-11-16T03:30:43.260Z,99617.91
2022-11-16T03:33:39.617Z,99615.28
2022-11-16T03:36:24.825Z,99623.19
2022-11-16T03:39:04.321Z,99610.84
2022-11-16T03:41:44.005Z,99620.53
2022-11-16T03:44:20.034Z,99618.72
2022-11-16T03:46:52.010Z,99630.13
2022-11-16T03:49:24.339Z,99627.47
2022-11-16T03:51:57.102Z,99630.97
2022-11-16T03:54:29.071Z,99638.00
2022-11-16T03:57:00.959Z,99645.84
2022-11-16T03:59:33.656Z,99645.81
2022-11-16T04:02:05.583Z,99651.94
2022-11-16T04:04:56.445Z,99645.78
2022-11-16T04:07:47.077Z,99650.13
2022-11-16T04:10:37.625Z,99645.69
2022-11-16T04:13:32.457Z,99647.44
2022-11-16T04:16:23.241Z,99650.03
2022-11-16T04:19:13.836Z,99648.31
2022-11-16T04:22:14.975Z,99628.84
2022-11-16T04:24:52.704Z,99643.00
2022-11-16T04:27:48.665Z,99622.66
2022-11-16T04:30:20.976Z,99657.91
2022-11-16T04:33:11.815Z,99647.38
2022-11-16T04:36:02.370Z,99646.47
2022-11-16T04:38:34.588Z,99645.56
2022-11-16T04:41:26.837Z,99661.44
2022-11-16T04:43:59.064Z,99634.06
2022-11-16T04:46:49.662Z,99671.06
2022-11-16T04:49:21.734Z,99675.44
2022-11-16T04:51:53.835Z,99678.03
2022-11-16T04:54:25.816Z,99678.94
2022-11-16T04:56:57.688Z,99684.13
2022-11-16T04:59:29.600Z,99675.28
2022-11-16T05:02:10.512Z,99683.22
2022-11-16T05:04:44.523Z,99686.69
2022-11-16T05:07:16.548Z,99685.81
2022-11-16T05:09:49.872Z,99683.16
2022-11-16T05:12:27.764Z,99676.97
2022-11-16T05:15:00.023Z,99686.63
2022-11-16T05:17:32.499Z,99677.81
2022-11-16T05:20:23.524Z,99670.75
2022-11-16T05:22:57.259Z,99693.63
2022-11-16T05:25:33.850Z,99691.03
2022-11-16T05:28:07.346Z,99691.91
2022-11-16T05:30:39.256Z,99689.28
2022-11-16T05:33:11.280Z,99679.63
2022-11-16T05:35:43.152Z,99676.09
2022-11-16T05:38:15.058Z,99669.94
2022-11-16T05:40:47.028Z,99674.34
2022-11-16T05:43:18.934Z,99681.41
2022-11-16T05:45:50.875Z,99676.97
2022-11-16T05:48:22.793Z,99682.28
2022-11-16T05:50:59.786Z,99687.56
2022-11-16T05:53:31.673Z,99691.06
2022-11-16T05:56:03.814Z,99691.88
2022-11-16T05:58:35.962Z,99695.38
2022-11-16T06:01:08.676Z,99703.25
2022-11-16T06:03:40.684Z,99702.31
2022-11-16T06:06:12.831Z,99705.84
2022-11-16T06:08:44.792Z,99700.56
2022-11-16T06:11:16.786Z,99707.53
2022-11-16T06:13:49.377Z,99709.25
2022-11-16T06:16:21.891Z,99711.00
2022-11-16T06:18:53.866Z,99706.63
2022-11-16T06:21:25.915Z,99710.97
2022-11-16T06:23:57.813Z,99701.19
2022-11-16T06:26:29.699Z,99691.44
2022-11-16T06:29:01.778Z,99709.94
2022-11-16T06:31:33.814Z,99727.53
2022-11-16T06:34:05.740Z,99733.63
2022-11-16T06:36:37.688Z,99739.75
2022-11-16T06:39:11.365Z,99738.03
2022-11-16T06:41:43.286Z,99734.47
2022-11-16T06:44:15.344Z,99726.47
2022-11-16T06:46:47.343Z,99735.25
2022-11-16T06:49:19.239Z,99737.19
2022-11-16T06:51:51.227Z,99737.84
2022-11-16T06:54:23.308Z,99739.44
2022-11-16T06:56:55.258Z,99749.09
2022-11-16T06:59:27.160Z,99748.13
2022-11-16T07:01:59.190Z,99756.03
2022-11-16T07:04:32.956Z,99750.69
2022-11-16T07:07:05.378Z,99742.75
2022-11-16T07:09:37.370Z,99725.03
2022-11-16T07:12:09.284Z,99765.56
2022-11-16T07:14:42.239Z,99762.91
2022-11-16T07:17:14.172Z,99773.38
2022-11-16T07:19:46.126Z,99768.94
2022-11-16T07:22:17.997Z,99766.28
2022-11-16T07:24:49.908Z,99767.97
2022-11-16T07:27:21.868Z,99744.88
2022-11-16T07:29:53.746Z,99760.81
2022-11-16T07:32:25.716Z,99772.31
2022-11-16T07:34:59.398Z,99782.78
2022-11-16T07:37:31.635Z,99795.88
2022-11-16T07:40:03.811Z,99790.63
2022-11-16T07:42:35.996Z,99798.50
2022-11-16T07:45:09.033Z,99790.63
2022-11-16T07:47:41.198Z,99776.53
2022-11-16T07:50:13.120Z,99792.34
2022-11-16T07:52:46.632Z,99791.47
2022-11-16T07:55:18.511Z,99777.31
2022-11-16T07:57:53.390Z,99789.66
2022-11-16T08:00:27.017Z,99803.72
2022-11-16T08:02:58.986Z,99803.75
2022-11-16T08:05:30.991Z,99799.44
2022-11-16T08:08:03.006Z,99803.88
2022-11-16T08:10:35.067Z,99803.88
2022-11-16T08:13:07.013Z,99814.66
2022-11-16T08:15:38.890Z,99810.38
2022-11-16T08:18:10.919Z,99806.13
2022-11-16T08:20:42.810Z,99808.88
2022-11-16T08:23:14.754Z,99816.03
2022-11-16T08:25:46.631Z,99811.72
2022-11-16T08:28:18.537Z,99810.91
2022-11-16T08:30:54.028Z,99810.09
2022-11-16T08:33:29.217Z,99805.84
2022-11-16T08:36:09.567Z,99798.91
2022-11-16T08:38:48.820Z,99800.69
2022-11-16T08:41:22.117Z,99803.28
2022-11-16T08:43:54.173Z,99805.00
2022-11-16T08:46:26.119Z,99811.13
2022-11-16T08:48:58.682Z,99811.22
2022-11-16T08:51:30.646Z,99800.72
2022-11-16T08:54:03.977Z,99820.94
2022-11-16T08:56:35.939Z,99807.63
2022-11-16T08:59:07.951Z,99829.56
2022-11-16T09:01:40.373Z,99823.38
2022-11-16T09:04:12.644Z,99820.66
2022-11-16T09:06:45.619Z,99817.97
2022-11-16T09:09:17.557Z,99833.78
2022-11-16T09:11:52.753Z,99826.69
2022-11-16T09:14:24.725Z,99824.09
2022-11-16T09:16:56.646Z,99837.28
2022-11-16T09:19:28.572Z,99802.03
2022-11-16T09:22:00.448Z,99833.06
2022-11-16T09:24:32.527Z,99830.66
2022-11-16T09:27:04.493Z,99826.47
2022-11-16T09:29:36.427Z,99833.00
2022-11-16T09:32:08.923Z,99823.47
2022-11-16T09:34:40.853Z,99833.34
2022-11-16T09:37:12.896Z,99832.50
2022-11-16T09:39:44.789Z,99824.66
2022-11-16T09:43:00.020Z,99831.75
2022-11-16T09:45:46.517Z,99832.75
2022-11-16T09:48:21.035Z,99831.97
2022-11-16T09:50:56.465Z,99835.63
2022-11-16T09:54:05.990Z,99839.25
2022-11-16T09:56:42.155Z,99837.53
2022-11-16T09:59:52.014Z,99832.25
2022-11-16T10:02:37.395Z,99830.53
2022-11-16T10:05:22.476Z,99827.94
2022-11-16T10:08:35.298Z,99823.56
2022-11-16T10:11:56.445Z,99832.38
2022-11-16T10:14:47.184Z,99843.00
2022-11-16T10:17:36.982Z,99823.59
2022-11-16T10:20:37.733Z,99828.88
2022-11-16T10:23:21.629Z,99817.47
2022-11-16T10:26:23.081Z,99816.56
2022-11-16T10:29:37.762Z,99828.91
2022-11-16T10:32:30.949Z,99825.38
2022-11-16T10:35:11.658Z,99822.69
2022-11-16T10:37:51.814Z,99805.91
2022-11-16T10:40:35.910Z,99807.69
2022-11-16T10:43:19.013Z,99818.22
2022-11-16T10:46:17.466Z,99813.75
2022-11-16T10:49:29.296Z,99806.69
2022-11-16T10:52:01.394Z,99812.09
2022-11-16T10:54:33.415Z,99811.25
2022-11-16T10:57:17.774Z,99813.06
2022-11-16T10:59:59.096Z,99794.47
2022-11-16T11:02:35.400Z,99820.03
2022-11-16T11:05:27.708Z,99827.06
2022-11-16T11:08:11.857Z,99811.22
2022-11-16T11:10:43.849Z,99811.25
2022-11-16T11:13:15.729Z,99799.78
2022-11-16T11:15:48.779Z,99800.66
2022-11-16T11:18:23.665Z,99798.91
2022-11-16T11:21:15.481Z,99803.34
2022-11-16T11:23:52.447Z,99804.19
2022-11-16T11:26:37.877Z,99799.78
2022-11-16T11:29:25.053Z,99799.72
2022-11-16T11:32:16.964Z,99792.59
2022-11-16T11:34:55.824Z,99793.44
2022-11-16T11:37:35.709Z,99785.41
2022-11-16T11:40:21.244Z,99795.97
2022-11-16T11:43:23.971Z,99787.06
2022-11-16T11:46:15.391Z,99780.88
2022-11-16T11:49:01.544Z,99779.94
2022-11-16T11:51:40.180Z,99785.22
2022-11-16T11:54:32.864Z,99782.59
2022-11-16T11:57:15.656Z,99775.63
2022-11-16T11:59:50.356Z,99764.25
2022-11-16T12:02:56.258Z,99757.22
2022-11-16T12:06:06.035Z,99767.84
2022-11-16T12:09:16.034Z,99752.91
2022-11-16T12:12:37.732Z,99752.97
2022-11-16T12:15:39.604Z,99746.81
2022-11-16T12:18:35.971Z,99742.47
2022-11-16T12:21:16.797Z,99731.03
2022-11-16T12:24:28.702Z,99726.63
2022-11-16T12:27:54.821Z,99718.66
2022-11-16T12:30:26.996Z,99731.00
2022-11-16T12:33:59.638Z,99729.03
2022-11-16T12:37:14.673Z,99724.47
2022-11-16T12:40:23.313Z,99713.78
2022-11-16T12:43:11.500Z,99698.56
2022-11-16T12:46:25.651Z,99697.50
2022-11-16T12:49:24.708Z,99692.03
2022-11-16T12:52:11.482Z,99677.31
2022-11-16T12:55:26.684Z,99662.47
2022-11-16T12:58:36.321Z,99690.72
2022-11-16T13:01:13.804Z,99682.94
2022-11-16T13:03:57.105Z,99682.22
2022-11-16T13:06:37.481Z,99683.19
2022-11-16T13:09:23.312Z,99685.81
2022-11-16T13:12:01.421Z,99680.44
2022-11-16T13:14:40.525Z,99662.81
2022-11-16T13:17:24.246Z,99672.59
2022-11-16T13:20:53.160Z,99677.97
2022-11-16T13:23:56.683Z,99666.50
2022-11-16T13:26:54.277Z,99660.91
2022-11-16T13:29:48.854Z,99663.97
2022-11-16T13:32:32.575Z,99653.59
2022-11-16T13:35:11.660Z,99666.41
2022-11-16T13:37:46.503Z,99658.94
2022-11-16T13:40:24.936Z,99650.28
2022-11-16T13:43:06.008Z,99646.84
2022-11-16T13:45:50.061Z,99648.91
2022-11-16T13:48:45.780Z,99653.00
2022-11-16T13:51:23.151Z,99647.06
2022-11-16T13:56:51.765Z,99642.78
2022-11-16T13:59:32.210Z,99628.31
2022-11-16T14:02:29.948Z,99643.00
2022-11-16T14:05:03.172Z,99628.91
2022-11-16T14:07:45.243Z,99656.41
2022-11-16T14:10:35.980Z,99659.31
2022-11-16T14:13:42.167Z,99655.66
2022-11-16T14:16:20.058Z,99648.97
2022-11-16T14:19:02.927Z,99644.88
2022-11-16T14:22:04.602Z,99635.38
2022-11-16T14:24:58.316Z,99638.16
2022-11-16T14:27:44.165Z,99603.91
2022-11-16T14:30:32.587Z,99595.16
2022-11-16T14:33:04.615Z,99630.38
2022-11-16T14:35:39.770Z,99627.81
2022-11-16T14:38:41.132Z,99634.00
2022-11-16T14:41:22.627Z,99619.03
2022-11-16T14:43:58.162Z,99627.00
2022-11-16T14:46:38.077Z,99619.97
2022-11-16T14:49:16.903Z,99612.91
2022-11-16T14:51:54.984Z,99614.66
2022-11-16T14:54:57.938Z,99606.75
2022-11-16T14:57:29.960Z,99598.81
2022-11-16T15:00:18.632Z,99602.34
2022-11-16T15:02:59.161Z,99602.38
2022-11-16T15:05:36.877Z,99613.81
2022-11-16T15:08:23.585Z,99600.59
2022-11-16T15:10:56.810Z,99593.56
2022-11-16T15:13:28.873Z,99594.44
2022-11-16T15:16:17.699Z,99598.88
2022-11-16T15:19:01.805Z,99601.53
2022-11-16T15:21:33.786Z,99592.69
2022-11-16T15:24:29.498Z,99555.75
2022-11-16T15:27:07.006Z,99568.06
2022-11-16T15:29:39.460Z,99567.22
2022-11-16T15:32:17.707Z,99583.91
2022-11-16T15:34:54.516Z,99573.34
2022-11-16T15:37:30.333Z,99566.31
2022-11-16T15:40:03.363Z,99557.53
2022-11-16T15:42:37.194Z,99568.97
2022-11-16T15:45:26.129Z,99560.19
2022-11-16T15:48:01.731Z,99555.75
2022-11-16T15:50:33.717Z,99539.88
2022-11-16T15:53:05.645Z,99547.81
2022-11-16T15:55:40.768Z,99527.56
2022-11-16T15:58:26.955Z,99539.88
2022-11-16T16:00:59.912Z,99504.72
2022-11-16T16:03:35.517Z,99526.69
2022-11-16T16:06:14.353Z,99492.38
2022-11-16T16:08:46.249Z,99502.94
2022-11-16T16:11:21.402Z,99506.47
2022-11-16T16:14:01.383Z,99508.19
2022-11-16T16:16:38.014Z,99512.59
2022-11-16T16:19:37.221Z,99502.06
2022-11-16T16:22:28.449Z,99494.16
2022-11-16T16:25:04.111Z,99495.88
2022-11-16T16:27:40.820Z,99485.34
2022-11-16T16:30:14.707Z,99494.13
2022-11-16T16:32:50.433Z,99494.13
2022-11-16T16:35:25.344Z,99501.19
2022-11-16T16:38:00.970Z,99505.56
2022-11-16T16:40:33.720Z,99493.25
2022-11-16T16:43:05.686Z,99488.84
2022-11-16T16:45:41.901Z,99484.44
2022-11-16T16:48:13.826Z,99469.50
2022-11-16T16:50:45.792Z,99478.28
2022-11-16T16:53:18.036Z,99477.38
2022-11-16T16:55:50.037Z,99478.28
2022-11-16T16:58:22.062Z,99474.75
2022-11-16T17:00:59.873Z,99471.22
2022-11-16T17:03:33.587Z,99471.22
2022-11-16T17:06:06.248Z,99471.25
2022-11-16T17:08:39.025Z,99472.09
2022-11-16T17:11:12.352Z,99473.00
2022-11-16T17:13:44.412Z,99465.09
2022-11-16T17:16:16.833Z,99460.69
2022-11-16T17:18:54.398Z,99462.44
2022-11-16T17:21:26.397Z,99457.13
2022-11-16T17:23:58.510Z,99444.81
2022-11-16T17:26:30.413Z,99450.06
2022-11-16T17:29:02.574Z,99465.88
2022-11-16T17:31:34.447Z,99434.19
2022-11-16T17:34:10.708Z,99453.59
2022-11-16T17:36:45.309Z,99448.28
2022-11-16T17:39:17.571Z,99442.13
2022-11-16T17:41:50.225Z,99436.88
2022-11-16T17:44:22.472Z,99430.69
2022-11-16T17:46:54.471Z,99433.34
2022-11-16T17:49:26.465Z,99435.97
2022-11-16T17:51:59.413Z,99416.63
2022-11-16T17:54:31.334Z,99433.31
2022-11-16T17:57:03.302Z,99436.81
2022-11-16T17:59:35.274Z,99435.94
2022-11-16T18:02:09.694Z,99423.63
2022-11-16T18:04:43.614Z,99436.84
2022-11-16T18:07:17.710Z,99436.84
2022-11-16T18:09:49.714Z,99427.16
2022-11-16T18:12:21.599Z,99435.09
2022-11-16T18:15:21.434Z,99443.00
2022-11-16T18:17:45.615Z,99428.91
2022-11-16T18:20:17.729Z,99434.19
2022-11-16T18:22:49.798Z,99430.69
2022-11-16T18:25:22.309Z,99429.81
2022-11-16T18:27:55.628Z,99427.19
2022-11-16T18:30:27.589Z,99431.53
2022-11-16T18:32:59.433Z,99420.13
2022-11-16T18:35:31.367Z,99422.75
2022-11-16T18:38:03.875Z,99416.59
2022-11-16T18:40:35.789Z,99428.00
2022-11-16T18:43:13.564Z,99421.84
2022-11-16T18:45:45.497Z,99420.97
2022-11-16T18:48:17.350Z,99413.06
2022-11-16T18:50:49.277Z,99411.31
2022-11-16T18:53:21.204Z,99399.88
2022-11-16T18:55:57.635Z,99391.94
2022-11-16T19:01:25.674Z,99397.22
2022-11-16T19:03:57.937Z,99366.44
2022-11-16T19:06:32.244Z,99384.94
2022-11-16T19:09:06.235Z,99384.94
2022-11-16T19:11:38.294Z,99381.41
2022-11-16T19:14:10.246Z,99369.09
2022-11-16T19:16:52.638Z,99370.91
2022-11-16T19:19:30.283Z,99341.88
2022-11-16T19:22:02.403Z,99362.13
2022-11-16T19:24:34.275Z,99353.34
2022-11-16T19:27:06.227Z,99342.81
2022-11-16T19:29:38.307Z,99342.81
2022-11-16T19:32:10.313Z,99337.50
2022-11-16T19:34:42.245Z,99327.88
2022-11-16T19:37:15.097Z,99336.63
2022-11-16T19:39:47.124Z,99317.31
2022-11-16T19:42:19.028Z,99273.38
2022-11-16T19:44:50.931Z,99298.00
2022-11-16T19:47:26.471Z,99280.44
2022-11-16T19:49:58.473Z,99280.44
2022-11-16T19:52:30.394Z,99276.91
2022-11-16T19:55:02.357Z,99265.53
2022-11-16T19:57:34.312Z,99260.22
2022-11-16T20:00:07.642Z,99247.97
2022-11-16T20:02:39.623Z,99243.53
2022-11-16T20:05:11.592Z,99242.69
2022-11-16T20:07:44.701Z,99238.28
2022-11-16T20:10:17.531Z,99233.88
2022-11-16T20:12:49.785Z,99229.50
2022-11-16T20:15:23.879Z,99229.50
2022-11-16T20:17:55.791Z,99218.09
2022-11-16T20:20:27.814Z,99198.78
2022-11-16T20:22:59.768Z,99216.34
2022-11-16T20:25:32.526Z,99211.94
2022-11-16T20:28:05.531Z,99204.06
2022-11-16T20:30:37.427Z,99200.53
2022-11-16T20:33:09.316Z,99194.38
2022-11-16T20:35:42.100Z,99181.25
2022-11-16T20:38:14.054Z,99171.56
2022-11-16T20:40:45.936Z,99171.59
2022-11-16T20:43:17.775Z,99182.97
2022-11-16T20:45:53.868Z,99172.47
2022-11-16T20:48:25.734Z,99170.72
2022-11-16T20:50:57.675Z,99170.72
2022-11-16T20:53:29.627Z,99175.09
2022-11-16T20:56:03.329Z,99158.44
2022-11-16T20:58:36.311Z,99148.78
2022-11-16T21:01:18.070Z,99154.03
2022-11-16T21:03:50.107Z,99159.31
2022-11-16T21:06:22.334Z,99158.44
2022-11-16T21:08:55.502Z,99150.53
2022-11-16T21:11:30.884Z,99135.59
2022-11-16T21:14:17.852Z,99141.75
2022-11-16T21:16:50.002Z,99135.63
2022-11-16T21:19:21.911Z,99125.06
2022-11-16T21:21:53.803Z,99114.56
2022-11-16T21:24:27.516Z,99118.06
2022-11-16T21:26:59.436Z,99117.22
2022-11-16T21:29:31.440Z,99110.19
2022-11-16T21:32:03.411Z,99104.06
2022-11-16T21:34:39.955Z,99071.59
2022-11-16T21:37:12.420Z,99084.72
2022-11-16T21:39:44.396Z,99079.47
2022-11-16T21:42:16.288Z,99080.38
2022-11-16T21:44:48.215Z,99077.72
2022-11-16T21:47:21.092Z,99061.94
2022-11-16T21:50:24.682Z,99061.06
2022-11-16T21:52:45.037Z,99054.03
2022-11-16T21:55:16.912Z,99047.03
2022-11-16T21:57:48.995Z,99035.63
2022-11-16T22:00:21.112Z,99032.09
2022-11-16T22:02:53.885Z,99024.22
2022-11-16T22:05:44.300Z,99011.06
2022-11-16T22:08:16.283Z,99000.53
2022-11-16T22:10:52.657Z,98989.16
2022-11-16T22:13:24.568Z,98989.16
2022-11-16T22:15:56.575Z,98969.84
2022-11-16T22:18:29.660Z,98972.50
2022-11-16T22:21:02.430Z,98954.97
2022-11-16T22:23:35.424Z,98952.34
2022-11-16T22:26:12.646Z,98937.44
2022-11-16T22:28:44.560Z,98899.72
2022-11-16T22:31:16.476Z,98916.41
2022-11-16T22:33:53.648Z,98914.66
2022-11-16T22:36:25.592Z,98900.63
2022-11-16T22:38:57.727Z,98876.94
2022-11-16T22:41:29.936Z,98883.97
2022-11-16T22:44:01.833Z,98875.19
2022-11-16T22:46:33.825Z,98865.56
2022-11-16T22:49:05.846Z,98853.28
2022-11-16T22:51:37.995Z,98839.25
2022-11-16T22:54:11.567Z,98842.78
2022-11-16T22:56:44.249Z,98825.25
2022-11-16T22:59:16.179Z,98823.50
2022-11-16T23:01:48.110Z,98814.75
2022-11-16T23:04:20.000Z,98793.69
2022-11-16T23:06:52.124Z,98798.09
2022-11-16T23:09:24.072Z,98792.84
2022-11-16T23:12:14.353Z,98762.19
2022-11-16T23:15:04.848Z,98773.56
2022-11-16T23:17:36.756Z,98777.94
2022-11-16T23:20:28.212Z,98764.81
2022-11-16T23:23:18.611Z,98763.06
2022-11-16T23:26:09.375Z,98738.53
2022-11-16T23:28:41.302Z,98740.25
2022-11-16T23:31:13.212Z,98730.63
2022-11-16T23:33:45.164Z,98718.34
2022-11-16T23:36:17.068Z,98723.59
2022-11-16T23:38:48.981Z,98713.06
2022-11-16T23:41:39.510Z,98690.28
2022-11-16T23:44:11.493Z,98693.78
2022-11-16T23:46:43.369Z,98678.88
2022-11-16T23:49:15.273Z,98656.09
2022-11-16T23:51:47.136Z,98658.72
2022-11-16T23:54:19.029Z,98632.44
2022-11-16T23:56:50.935Z,98622.78
2022-11-16T23:59:22.872Z,98616.69
